createdAt,value
2018-09-26T00:03:53.129Z,50.90
2018-09-26T00:06:21.552Z,51.10
2018-09-26T00:08:49.920Z,51.30
2018-09-26T00:11:18.256Z,51.50
2018-09-26T00:13:46.599Z,51.60
2018-09-26T00:16:14.939Z,51.50
2018-09-26T00:18:43.260Z,51.80
2018-09-26T00:21:11.621Z,52.10
2018-09-26T00:23:40.048Z,52.10
2018-09-26T00:26:08.491Z,52.10
2018-09-26T00:28:36.829Z,52.00
2018-09-26T00:31:05.148Z,52.10
2018-09-26T00:33:34.187Z,52.20
2018-09-26T00:36:02.544Z,52.40
2018-09-26T00:38:30.947Z,52.50
2018-09-26T00:40:59.339Z,52.50
2018-09-26T00:43:27.657Z,52.50
2018-09-26T00:45:56.499Z,52.60
2018-09-26T00:48:24.824Z,52.50
2018-09-26T00:50:53.145Z,52.50
2018-09-26T00:53:21.523Z,52.30
2018-09-26T00:55:49.838Z,52.40
2018-09-26T00:58:18.360Z,52.50
2018-09-26T01:00:46.705Z,52.60
2018-09-26T01:03:15.033Z,52.40
2018-09-26T01:05:43.383Z,52.50
2018-09-26T01:08:11.683Z,52.50
2018-09-26T01:10:40.001Z,52.50
2018-09-26T01:13:08.947Z,53.00
2018-09-26T01:15:37.290Z,53.20
2018-09-26T01:18:05.645Z,53.30
2018-09-26T01:20:33.982Z,53.30
2018-09-26T01:23:02.338Z,53.90
2018-09-26T01:25:31.356Z,54.40
2018-09-26T01:27:59.749Z,54.40
2018-09-26T01:30:28.105Z,54.20
2018-09-26T01:32:56.411Z,54.10
2018-09-26T01:35:24.736Z,54.00
2018-09-26T01:37:53.125Z,54.00
2018-09-26T01:40:21.431Z,53.70
2018-09-26T01:42:49.788Z,53.50
2018-09-26T01:45:18.110Z,53.50
2018-09-26T01:47:46.451Z,53.60
2018-09-26T01:50:14.784Z,53.80
2018-09-26T01:52:43.113Z,53.80
2018-09-26T01:55:11.539Z,53.90
2018-09-26T01:57:39.876Z,53.80
2018-09-26T02:00:08.417Z,53.50
2018-09-26T02:02:36.739Z,53.70
2018-09-26T02:05:05.140Z,53.80
2018-09-26T02:07:33.475Z,53.90
2018-09-26T02:10:01.810Z,54.00
2018-09-26T02:12:30.374Z,54.20
2018-09-26T02:14:58.671Z,54.10
2018-09-26T02:17:27.018Z,54.10
2018-09-26T02:19:55.468Z,54.30
2018-09-26T02:22:23.813Z,54.10
2018-09-26T02:24:58.798Z,54.40
2018-09-26T02:27:27.186Z,54.50
2018-09-26T02:29:55.486Z,54.30
2018-09-26T02:32:23.829Z,54.40
2018-09-26T02:34:52.153Z,54.30
2018-09-26T02:37:20.511Z,54.40
2018-09-26T02:39:48.853Z,54.40
2018-09-26T02:42:17.242Z,54.30
2018-09-26T02:44:45.608Z,53.90
2018-09-26T02:47:13.966Z,53.90
2018-09-26T02:49:43.022Z,54.10
2018-09-26T02:52:11.406Z,54.00
2018-09-26T02:54:39.854Z,54.10
2018-09-26T02:59:42.943Z,54.00
2018-09-26T03:02:12.086Z,54.10
2018-09-26T03:04:40.408Z,54.00
2018-09-26T03:07:09.053Z,53.80
2018-09-26T03:09:37.486Z,53.80
2018-09-26T03:12:05.854Z,53.80
2018-09-26T03:14:34.434Z,53.90
2018-09-26T03:17:02.796Z,54.20
2018-09-26T03:19:31.144Z,54.20
2018-09-26T03:21:59.494Z,54.30
2018-09-26T03:24:27.846Z,54.40
2018-09-26T03:26:56.194Z,54.30
2018-09-26T03:29:24.504Z,54.20
2018-09-26T03:31:52.930Z,54.30
2018-09-26T03:34:21.268Z,54.00
2018-09-26T03:36:49.607Z,54.00
2018-09-26T03:39:17.947Z,53.80
2018-09-26T03:41:46.298Z,54.20
2018-09-26T03:44:14.604Z,54.40
2018-09-26T03:46:43.763Z,54.20
2018-09-26T03:49:12.084Z,53.90
2018-09-26T03:51:40.548Z,53.70
2018-09-26T03:54:08.948Z,53.60
2018-09-26T03:56:37.290Z,53.40
2018-09-26T03:59:05.933Z,53.40
2018-09-26T04:01:34.264Z,53.70
2018-09-26T04:04:02.648Z,53.80
2018-09-26T04:06:31.559Z,53.70
2018-09-26T04:08:59.909Z,53.60
2018-09-26T04:11:28.299Z,53.60
2018-09-26T04:13:56.656Z,53.80
2018-09-26T04:16:25.637Z,54.00
2018-09-26T04:18:53.946Z,54.30
2018-09-26T04:21:22.259Z,54.50
2018-09-26T04:23:50.626Z,54.60
2018-09-26T04:26:19.016Z,54.70
2018-09-26T04:28:47.268Z,54.60
2018-09-26T04:31:15.597Z,54.90
2018-09-26T04:33:45.069Z,54.90
2018-09-26T04:36:13.261Z,55.00
2018-09-26T04:38:41.659Z,54.90
2018-09-26T04:41:09.938Z,55.00
2018-09-26T04:43:38.252Z,55.20
2018-09-26T04:46:06.907Z,55.30
2018-09-26T04:48:35.301Z,55.30
2018-09-26T04:51:04.377Z,55.50
2018-09-26T04:53:32.720Z,55.50
2018-09-26T04:56:01.206Z,55.40
2018-09-26T04:58:29.718Z,55.30
2018-09-26T05:00:58.081Z,55.20
2018-09-26T05:03:26.533Z,54.90
2018-09-26T05:05:54.913Z,54.80
2018-09-26T05:08:23.336Z,54.70
2018-09-26T05:10:51.611Z,54.60
2018-09-26T05:13:19.955Z,55.10
2018-09-26T05:15:48.300Z,55.30
2018-09-26T05:18:16.659Z,55.40
2018-09-26T05:20:44.987Z,55.50
2018-09-26T05:23:13.763Z,55.70
2018-09-26T05:25:42.175Z,55.70
2018-09-26T05:28:10.697Z,55.50
2018-09-26T05:30:39.013Z,55.50
2018-09-26T05:33:07.356Z,55.80
2018-09-26T05:35:35.674Z,56.00
2018-09-26T05:38:04.035Z,55.90
2018-09-26T05:40:32.407Z,55.60
2018-09-26T05:43:00.736Z,55.50
2018-09-26T05:45:29.067Z,55.70
2018-09-26T05:47:57.395Z,55.60
2018-09-26T05:50:26.393Z,55.60
2018-09-26T05:52:54.749Z,55.60
2018-09-26T05:55:23.113Z,55.80
2018-09-26T05:57:51.483Z,58.30
2018-09-26T06:00:19.799Z,58.20
2018-09-26T06:02:48.203Z,57.50
2018-09-26T06:05:16.582Z,55.70
2018-09-26T06:07:44.860Z,54.00
2018-09-26T06:10:13.236Z,52.70
2018-09-26T06:12:41.657Z,51.30
2018-09-26T06:15:10.069Z,51.70
2018-09-26T06:17:38.461Z,51.30
2018-09-26T06:20:06.950Z,51.00
2018-09-26T06:22:35.447Z,50.60
2018-09-26T06:25:03.894Z,50.30
2018-09-26T06:27:32.212Z,50.50
2018-09-26T06:30:01.412Z,50.90
2018-09-26T06:32:29.816Z,49.80
2018-09-26T06:34:58.169Z,50.30
2018-09-26T06:37:26.447Z,51.20
2018-09-26T06:39:54.821Z,52.40
2018-09-26T06:42:23.841Z,51.90
2018-09-26T06:44:52.210Z,52.00
2018-09-26T06:47:20.588Z,52.10
2018-09-26T06:49:48.962Z,52.10
2018-09-26T06:52:17.314Z,52.00
2018-09-26T06:54:45.670Z,52.60
2018-09-26T06:57:14.071Z,52.00
2018-09-26T06:59:42.467Z,51.20
2018-09-26T07:02:10.832Z,51.20
2018-09-26T07:04:39.198Z,51.20
2018-09-26T07:07:07.559Z,50.90
2018-09-26T07:09:35.918Z,50.10
2018-09-26T07:12:05.050Z,50.10
2018-09-26T07:14:33.374Z,50.70
2018-09-26T07:17:01.706Z,51.30
2018-09-26T07:19:30.129Z,51.90
2018-09-26T07:21:58.454Z,52.90
2018-09-26T07:24:26.818Z,52.10
2018-09-26T07:26:56.015Z,51.20
2018-09-26T07:29:24.437Z,52.50
2018-09-26T07:31:52.791Z,52.90
2018-09-26T07:34:25.394Z,52.80
2018-09-26T07:36:53.833Z,52.60
2018-09-26T07:39:22.272Z,51.30
2018-09-26T07:41:50.598Z,49.20
2018-09-26T07:44:18.942Z,49.00
2018-09-26T07:46:47.304Z,50.00
2018-09-26T07:49:15.683Z,50.10
2018-09-26T07:51:44.095Z,49.00
2018-09-26T07:54:12.523Z,49.40
2018-09-26T07:56:41.531Z,49.00
2018-09-26T07:59:10.089Z,48.10
2018-09-26T08:01:38.453Z,48.20
2018-09-26T08:04:06.974Z,47.80
2018-09-26T08:06:35.373Z,47.60
2018-09-26T08:09:05.011Z,47.50
2018-09-26T08:11:33.447Z,46.90
2018-09-26T08:14:01.856Z,44.60
2018-09-26T08:16:30.883Z,44.00
2018-09-26T08:18:59.218Z,43.40
2018-09-26T08:21:27.582Z,43.50
2018-09-26T08:23:56.005Z,42.40
2018-09-26T08:26:24.344Z,42.60
2018-09-26T08:28:52.740Z,41.60
2018-09-26T08:31:21.062Z,40.70
2018-09-26T08:33:49.422Z,41.10
2018-09-26T08:36:18.378Z,40.30
2018-09-26T08:38:46.850Z,39.50
2018-09-26T08:41:15.327Z,39.00
2018-09-26T08:43:44.040Z,38.50
2018-09-26T08:46:12.461Z,37.30
2018-09-26T08:48:40.789Z,37.20
2018-09-26T08:51:09.476Z,37.00
2018-09-26T08:53:38.513Z,37.20
2018-09-26T08:56:07.155Z,35.70
2018-09-26T08:58:35.579Z,35.30
2018-09-26T09:01:03.991Z,35.20
2018-09-26T09:03:32.339Z,35.60
2018-09-26T09:06:00.782Z,34.90
2018-09-26T09:08:29.129Z,34.10
2018-09-26T09:10:57.496Z,34.10
2018-09-26T09:13:25.854Z,33.10
2018-09-26T09:15:54.249Z,33.80
2018-09-26T09:18:29.246Z,33.40
2018-09-26T09:20:57.978Z,32.80
2018-09-26T09:23:26.325Z,33.30
2018-09-26T09:25:55.411Z,32.10
2018-09-26T09:28:23.800Z,32.60
2018-09-26T09:30:52.183Z,31.90
2018-09-26T09:33:21.117Z,31.10
2018-09-26T09:35:49.461Z,29.90
2018-09-26T09:38:17.820Z,31.00
2018-09-26T09:40:46.358Z,31.30
2018-09-26T09:43:14.680Z,29.60
2018-09-26T09:45:43.123Z,30.30
2018-09-26T09:48:11.571Z,29.60
2018-09-26T09:50:39.894Z,28.50
2018-09-26T09:53:08.238Z,29.30
2018-09-26T09:55:37.160Z,29.50
2018-09-26T09:58:05.939Z,30.10
2018-09-26T10:00:39.575Z,29.90
2018-09-26T10:03:08.104Z,29.00
2018-09-26T10:05:36.486Z,28.20
2018-09-26T10:08:04.884Z,28.60
2018-09-26T10:10:33.227Z,29.40
2018-09-26T10:13:01.607Z,28.50
2018-09-26T10:15:30.106Z,28.40
2018-09-26T10:17:58.454Z,28.20
2018-09-26T10:20:27.026Z,28.60
2018-09-26T10:22:55.303Z,28.70
2018-09-26T10:25:24.362Z,28.30
2018-09-26T10:27:52.735Z,28.20
2018-09-26T10:30:21.093Z,28.40
2018-09-26T10:32:49.469Z,28.00
2018-09-26T10:35:17.826Z,28.10
2018-09-26T10:37:46.124Z,27.60
2018-09-26T10:40:14.773Z,26.70
2018-09-26T10:42:43.148Z,27.30
2018-09-26T10:45:12.660Z,25.20
2018-09-26T10:47:40.997Z,26.30
2018-09-26T10:50:10.225Z,25.60
2018-09-26T10:52:38.597Z,25.80
2018-09-26T10:55:06.945Z,25.30
2018-09-26T10:57:35.273Z,24.90
2018-09-26T11:00:04.265Z,25.00
2018-09-26T11:02:32.634Z,23.40
2018-09-26T11:05:00.953Z,24.40
2018-09-26T11:07:29.298Z,24.50
2018-09-26T11:09:57.611Z,24.20
2018-09-26T11:12:25.951Z,23.90
2018-09-26T11:14:55.205Z,24.30
2018-09-26T11:17:23.587Z,23.60
2018-09-26T11:19:52.099Z,23.60
2018-09-26T11:22:20.560Z,24.40
2018-09-26T11:24:48.895Z,22.50
2018-09-26T11:27:17.204Z,24.00
2018-09-26T11:29:46.132Z,23.90
2018-09-26T11:32:14.504Z,23.50
2018-09-26T11:34:42.827Z,23.90
2018-09-26T11:37:11.177Z,22.70
2018-09-26T11:39:40.379Z,23.20
2018-09-26T11:42:08.764Z,22.70
2018-09-26T11:44:37.121Z,23.40
2018-09-26T11:47:05.403Z,23.60
2018-09-26T11:49:33.749Z,23.70
2018-09-26T11:52:02.155Z,22.70
2018-09-26T11:54:30.615Z,23.40
2018-09-26T11:56:58.935Z,23.20
2018-09-26T11:59:27.249Z,24.10
2018-09-26T12:01:55.603Z,23.80
2018-09-26T12:04:24.002Z,22.90
2018-09-26T12:06:52.257Z,22.90
2018-09-26T12:09:20.575Z,22.10
2018-09-26T12:11:49.719Z,21.90
2018-09-26T12:14:18.093Z,23.10
2018-09-26T12:16:46.555Z,23.10
2018-09-26T12:19:14.938Z,21.90
2018-09-26T12:21:43.410Z,20.70
2018-09-26T12:24:11.697Z,21.60
2018-09-26T12:26:41.100Z,21.70
2018-09-26T12:29:09.419Z,21.40
2018-09-26T12:31:37.746Z,21.40
2018-09-26T12:34:06.585Z,21.00
2018-09-26T12:36:34.934Z,21.80
2018-09-26T12:39:04.355Z,22.00
2018-09-26T12:41:32.680Z,21.20
2018-09-26T12:44:01.127Z,21.40
2018-09-26T12:46:29.432Z,21.40
2018-09-26T12:48:58.960Z,21.40
2018-09-26T12:51:27.395Z,21.50
2018-09-26T12:53:55.940Z,21.70
2018-09-26T12:56:24.123Z,19.20
2018-09-26T12:58:52.599Z,20.60
2018-09-26T13:01:20.913Z,21.90
2018-09-26T13:03:49.266Z,20.90
2018-09-26T13:06:17.731Z,20.20
2018-09-26T13:08:45.941Z,20.20
2018-09-26T13:11:14.298Z,20.00
2018-09-26T13:13:42.665Z,20.00
2018-09-26T13:16:12.095Z,19.60
2018-09-26T13:18:40.423Z,20.90
2018-09-26T13:21:08.863Z,21.10
2018-09-26T13:23:37.301Z,19.20
2018-09-26T13:26:05.708Z,20.00
2018-09-26T13:28:34.724Z,20.80
2018-09-26T13:31:03.092Z,19.70
2018-09-26T13:33:32.382Z,19.60
2018-09-26T13:36:00.753Z,20.10
2018-09-26T13:38:29.093Z,20.00
2018-09-26T13:40:57.472Z,18.70
2018-09-26T13:43:25.810Z,18.50
2018-09-26T13:45:54.220Z,19.20
2018-09-26T13:48:22.518Z,17.90
2018-09-26T13:50:51.687Z,19.30
2018-09-26T13:53:20.185Z,18.30
2018-09-26T13:55:48.554Z,17.50
2018-09-26T13:58:17.599Z,17.20
2018-09-26T14:00:45.977Z,18.00
2018-09-26T14:03:14.360Z,18.20
2018-09-26T14:05:43.240Z,17.60
2018-09-26T14:08:11.731Z,18.20
2018-09-26T14:10:40.903Z,18.50
2018-09-26T14:13:09.180Z,17.80
2018-09-26T14:15:37.544Z,18.70
2018-09-26T14:18:05.941Z,18.80
2018-09-26T14:20:34.626Z,19.00
2018-09-26T14:23:02.971Z,18.30
2018-09-26T14:25:31.372Z,18.20
2018-09-26T14:27:59.803Z,19.30
2018-09-26T14:30:28.820Z,18.50
2018-09-26T14:32:57.095Z,18.80
2018-09-26T14:35:25.582Z,19.00
2018-09-26T14:37:53.924Z,18.40
2018-09-26T14:40:22.502Z,19.40
2018-09-26T14:42:50.848Z,18.60
2018-09-26T14:45:19.289Z,18.80
2018-09-26T14:47:47.604Z,18.60
2018-09-26T14:50:16.583Z,18.80
2018-09-26T14:52:44.920Z,19.00
2018-09-26T14:55:13.296Z,18.60
2018-09-26T14:57:41.661Z,19.00
2018-09-26T15:00:10.068Z,18.70
2018-09-26T15:02:38.726Z,18.80
2018-09-26T15:05:07.134Z,19.20
2018-09-26T15:07:35.488Z,17.80
2018-09-26T15:10:04.373Z,17.90
2018-09-26T15:12:33.585Z,18.60
2018-09-26T15:15:02.006Z,18.00
2018-09-26T15:17:30.376Z,17.80
2018-09-26T15:19:58.758Z,18.40
2018-09-26T15:22:27.159Z,18.00
2018-09-26T15:24:55.451Z,19.00
2018-09-26T15:27:23.815Z,18.60
2018-09-26T15:29:52.280Z,18.70
2018-09-26T15:32:20.698Z,18.70
2018-09-26T15:34:49.039Z,18.70
2018-09-26T15:37:17.374Z,20.10
2018-09-26T15:39:45.752Z,20.20
2018-09-26T15:42:14.195Z,20.20
2018-09-26T15:44:42.542Z,20.30
2018-09-26T15:47:10.938Z,20.60
2018-09-26T15:49:39.851Z,21.20
2018-09-26T15:52:08.761Z,21.40
2018-09-26T15:54:37.057Z,21.40
2018-09-26T15:57:05.409Z,20.80
2018-09-26T15:59:33.880Z,20.60
2018-09-26T16:02:02.291Z,21.10
2018-09-26T16:04:30.656Z,21.70
2018-09-26T16:07:00.230Z,23.40
2018-09-26T16:09:29.245Z,24.20
2018-09-26T16:11:57.606Z,24.80
2018-09-26T16:14:25.985Z,25.10
2018-09-26T16:16:54.283Z,25.20
2018-09-26T16:19:22.679Z,25.60
2018-09-26T16:21:51.108Z,26.00
2018-09-26T16:24:19.602Z,26.30
2018-09-26T16:26:47.884Z,26.70
2018-09-26T16:29:16.249Z,27.80
2018-09-26T16:31:44.667Z,27.60
2018-09-26T16:34:13.081Z,27.60
2018-09-26T16:36:49.268Z,27.70
2018-09-26T16:39:17.681Z,28.00
2018-09-26T16:41:46.024Z,28.20
2018-09-26T16:44:14.505Z,29.00
2018-09-26T16:46:42.769Z,29.50
2018-09-26T16:49:11.161Z,29.50
2018-09-26T16:51:44.000Z,29.30
2018-09-26T16:54:12.481Z,29.40
2018-09-26T16:56:40.852Z,29.10
2018-09-26T16:59:09.531Z,30.00
2018-09-26T17:01:37.921Z,30.70
2018-09-26T17:04:06.386Z,30.90
2018-09-26T17:06:34.688Z,30.90
2018-09-26T17:09:03.293Z,30.50
2018-09-26T17:11:32.368Z,30.90
2018-09-26T17:14:00.739Z,30.90
2018-09-26T17:16:29.215Z,31.50
2018-09-26T17:18:57.565Z,31.20
2018-09-26T17:21:26.699Z,31.20
2018-09-26T17:23:55.071Z,31.30
2018-09-26T17:26:23.704Z,31.30
2018-09-26T17:28:52.662Z,31.20
2018-09-26T17:31:20.955Z,31.30
2018-09-26T17:33:49.288Z,31.10
2018-09-26T17:36:17.785Z,30.90
2018-09-26T17:38:46.098Z,31.20
2018-09-26T17:41:14.467Z,31.50
2018-09-26T17:43:42.846Z,32.20
2018-09-26T17:46:11.217Z,33.20
2018-09-26T17:48:39.616Z,33.00
2018-09-26T17:51:07.934Z,33.10
2018-09-26T17:53:36.870Z,33.30
2018-09-26T17:56:05.708Z,33.50
2018-09-26T17:58:34.032Z,34.10
2018-09-26T18:01:02.483Z,34.20
2018-09-26T18:03:30.808Z,34.50
2018-09-26T18:05:59.176Z,35.50
2018-09-26T18:08:27.635Z,35.60
2018-09-26T18:10:55.936Z,36.00
2018-09-26T18:13:24.373Z,36.50
2018-09-26T18:15:52.661Z,36.90
2018-09-26T18:18:20.972Z,37.10
2018-09-26T18:20:49.452Z,37.30
2018-09-26T18:23:18.029Z,36.90
2018-09-26T18:25:46.453Z,37.20
2018-09-26T18:28:15.589Z,37.70
2018-09-26T18:30:44.638Z,38.10
2018-09-26T18:33:13.284Z,38.20
2018-09-26T18:35:42.216Z,38.50
2018-09-26T18:38:10.629Z,39.00
2018-09-26T18:40:39.083Z,39.50
2018-09-26T18:43:07.553Z,40.00
2018-09-26T18:45:36.010Z,40.50
2018-09-26T18:48:04.471Z,40.50
2018-09-26T18:50:33.428Z,40.40
2018-09-26T18:53:02.056Z,40.30
2018-09-26T18:55:30.400Z,40.40
2018-09-26T18:57:58.762Z,40.30
2018-09-26T19:00:27.664Z,40.60
2018-09-26T19:02:56.348Z,40.80
2018-09-26T19:05:24.787Z,41.00
2018-09-26T19:07:54.136Z,41.20
2018-09-26T19:10:22.542Z,41.30
2018-09-26T19:12:50.927Z,41.50
2018-09-26T19:15:19.342Z,42.30
2018-09-26T19:17:47.719Z,42.00
2018-09-26T19:20:16.306Z,42.20
2018-09-26T19:22:44.782Z,43.90
2018-09-26T19:25:13.689Z,43.90
2018-09-26T19:27:42.114Z,43.80
2018-09-26T19:30:10.590Z,43.70
2018-09-26T19:32:38.954Z,43.70
2018-09-26T19:35:07.449Z,43.60
2018-09-26T19:37:35.876Z,43.60
2018-09-26T19:40:04.354Z,43.90
2018-09-26T19:42:32.680Z,44.10
2018-09-26T19:45:01.052Z,44.40
2018-09-26T19:47:29.956Z,44.80
2018-09-26T19:49:58.278Z,45.20
2018-09-26T19:52:26.707Z,45.50
2018-09-26T19:54:55.093Z,46.50
2018-09-26T19:57:23.464Z,45.50
2018-09-26T19:59:52.416Z,44.70
2018-09-26T20:02:21.404Z,44.40
2018-09-26T20:04:49.724Z,44.50
2018-09-26T20:07:18.068Z,44.50
2018-09-26T20:09:46.600Z,44.80
2018-09-26T20:12:21.767Z,45.00
2018-09-26T20:14:50.716Z,45.40
2018-09-26T20:17:19.106Z,46.00
2018-09-26T20:19:47.485Z,45.80
2018-09-26T20:22:15.904Z,45.80
2018-09-26T20:24:44.290Z,46.50
2018-09-26T20:27:12.792Z,46.10
2018-09-26T20:29:41.321Z,45.80
2018-09-26T20:32:09.500Z,46.10
2018-09-26T20:34:44.612Z,46.20
2018-09-26T20:37:13.057Z,46.50
2018-09-26T20:39:41.423Z,46.60
2018-09-26T20:42:09.753Z,46.60
2018-09-26T20:44:38.153Z,46.90
2018-09-26T20:47:06.502Z,47.30
2018-09-26T20:49:34.925Z,47.50
2018-09-26T20:52:03.364Z,48.60
2018-09-26T20:54:31.616Z,48.80
2018-09-26T20:56:59.995Z,49.30
2018-09-26T20:59:28.334Z,49.60
2018-09-26T21:01:56.679Z,49.60
2018-09-26T21:04:25.081Z,49.80
2018-09-26T21:06:53.413Z,50.20
2018-09-26T21:09:21.749Z,50.60
2018-09-26T21:11:50.095Z,51.00
2018-09-26T21:14:18.611Z,51.20
2018-09-26T21:16:46.960Z,51.40
2018-09-26T21:19:15.409Z,51.40
2018-09-26T21:21:43.784Z,51.30
2018-09-26T21:24:12.154Z,51.70
2018-09-26T21:26:40.509Z,52.10
2018-09-26T21:29:08.974Z,52.30
2018-09-26T21:31:37.309Z,52.60
2018-09-26T21:34:05.710Z,52.60
2018-09-26T21:36:34.402Z,52.50
2018-09-26T21:39:02.837Z,52.50
2018-09-26T21:41:31.685Z,52.50
2018-09-26T21:44:00.023Z,52.40
2018-09-26T21:46:30.616Z,52.40
2018-09-26T21:48:59.002Z,52.80
2018-09-26T21:51:27.338Z,52.40
2018-09-26T21:53:55.757Z,52.30
2018-09-26T21:56:24.157Z,52.30
2018-09-26T21:58:52.504Z,52.20
2018-09-26T22:01:20.852Z,52.80
2018-09-26T22:03:49.684Z,52.10
2018-09-26T22:06:17.995Z,52.10
2018-09-26T22:08:46.941Z,52.70
2018-09-26T22:11:15.405Z,52.80
2018-09-26T22:13:43.735Z,52.90
2018-09-26T22:16:12.164Z,53.00
2018-09-26T22:18:40.477Z,53.00
2018-09-26T22:21:08.854Z,52.70
2018-09-26T22:26:11.873Z,53.20
2018-09-26T22:28:40.260Z,53.20
2018-09-26T22:31:09.147Z,53.10
2018-09-26T22:33:37.449Z,53.10
2018-09-26T22:36:05.854Z,52.80
2018-09-26T22:38:34.178Z,52.80
2018-09-26T22:41:02.531Z,53.10
2018-09-26T22:43:30.964Z,53.30
2018-09-26T22:45:59.331Z,53.60
2018-09-26T22:48:27.697Z,53.80
2018-09-26T22:50:56.100Z,54.00
2018-09-26T22:53:24.498Z,54.20
2018-09-26T22:55:52.894Z,54.40
2018-09-26T22:58:21.228Z,54.50
2018-09-26T23:00:49.650Z,54.80
2018-09-26T23:03:18.873Z,55.20
2018-09-26T23:05:47.245Z,55.90
2018-09-26T23:08:15.792Z,56.30
2018-09-26T23:10:44.113Z,56.30
2018-09-26T23:13:13.021Z,56.20
2018-09-26T23:15:42.121Z,56.20
2018-09-26T23:18:10.476Z,56.10
2018-09-26T23:20:38.831Z,55.80
2018-09-26T23:23:07.203Z,55.60
2018-09-26T23:25:35.520Z,55.60
2018-09-26T23:28:04.520Z,55.50
2018-09-26T23:30:32.930Z,55.80
2018-09-26T23:33:01.356Z,56.10
2018-09-26T23:35:29.746Z,56.30
2018-09-26T23:37:58.084Z,56.40
2018-09-26T23:40:27.199Z,56.40
2018-09-26T23:42:55.545Z,56.40
2018-09-26T23:45:23.885Z,56.30
2018-09-26T23:47:52.243Z,56.30
2018-09-26T23:50:20.569Z,56.40
2018-09-26T23:52:48.965Z,56.40
2018-09-26T23:55:17.343Z,56.40
2018-09-26T23:57:45.671Z,56.60
